Terminal Aerodrome Forecast
Issued by NWS Wilmington, NC

Home | Current Version | Previous Version | Text Only | Print | Product List | Glossary On
Versions: 1 2 3 4 5 6 7 8 9 10 11 12 13 14 15 16 17
154
FTUS42 KILM 301120
TAFMYR
TAF
KMYR 301120Z 3012/3112 16012KT P6SM FEW011 BKN017 OVC045
     FM301900 19010KT 6SM -SHRA BR SCT015 OVC025
     FM310200 10006KT P6SM VCSH SCT025 OVC050=

USA.gov is the U.S. government's official web portal to all federal, state and local government web resources and services.